Time;durP1;ratioP1;P1;durP2;ratioP2;P2;SDS_P1;SDS_P2;PMS_P1;PMS_P2;Temp;Humidity;BMP_temperature;BMP_pressure;BME280_temperature;BME280_humidity;BME280_pressure;Samples;Min_cycle;Max_cycle;Signal;HPM_P1;HPM_P2
2024/03/04 00:01:54;;;;;;;12.67;8.33;;;;;;;8.98;87.30;96758.66;5188882;22;20618;-87
2024/03/04 00:03:58;;;;;;;11.27;8.27;;;;;;;8.96;87.04;96752.75;5137974;23;20634;-86
2024/03/04 00:06:04;;;;;;;12.83;8.90;;;;;;;8.95;87.93;96763.28;5161276;23;20944;-86
2024/03/04 00:08:07;;;;;;;10.53;8.10;;;;;;;8.95;87.32;96769.31;5188443;22;20575;-86
2024/03/04 00:10:12;;;;;;;13.10;8.37;;;;;;;8.92;88.57;96770.53;5189073;22;20594;-86
2024/03/04 00:12:14;;;;;;;12.10;8.60;;;;;;;8.90;87.37;96773.25;5137406;23;20572;-86
2024/03/04 00:14:18;;;;;;;11.43;8.20;;;;;;;8.85;88.00;96784.97;5137711;23;20573;-86
2024/03/04 00:16:21;;;;;;;11.87;8.43;;;;;;;8.84;87.78;96780.72;5188067;22;20630;-86
2024/03/04 00:18:23;;;;;;;14.40;9.30;;;;;;;8.82;88.09;96780.03;5161689;23;21135;-86
2024/03/04 00:20:27;;;;;;;10.60;8.07;;;;;;;8.80;88.69;96787.94;5162553;23;20556;-86
2024/03/04 00:22:30;;;;;;;12.57;8.13;;;;;;;8.81;88.15;96784.41;5137345;23;20636;-86
2024/03/04 00:24:33;;;;;;;12.43;8.57;;;;;;;8.79;89.41;96790.66;5162388;23;20563;-86
2024/03/04 00:26:38;;;;;;;11.03;8.07;;;;;;;8.77;89.05;96788.19;5189068;22;21071;-86
2024/03/04 00:28:41;;;;;;;9.90;7.27;;;;;;;8.74;88.09;96793.66;5162319;23;20663;-86
2024/03/04 00:30:44;;;;;;;10.10;7.87;;;;;;;8.70;87.50;96797.44;5162131;23;20664;-86
2024/03/04 00:32:47;;;;;;;10.90;7.90;;;;;;;8.70;87.75;96802.63;5138240;23;20604;-85
2024/03/04 00:34:51;;;;;;;9.53;7.83;;;;;;;8.63;89.17;96798.06;5137247;23;20628;-86
2024/03/04 00:36:54;;;;;;;10.30;8.03;;;;;;;8.58;88.38;96806.22;5136468;23;20576;-85
2024/03/04 00:38:57;;;;;;;12.90;8.20;;;;;;;8.55;88.81;96801.31;5136958;23;20574;-86
2024/03/04 00:41:00;;;;;;;13.83;8.63;;;;;;;8.53;88.64;96812.75;5189902;22;20567;-86
2024/03/04 00:43:05;;;;;;;12.53;8.60;;;;;;;8.49;89.18;96813.94;5137260;23;20635;-86
2024/03/04 00:45:09;;;;;;;11.55;8.45;;;;;;;8.49;88.54;96814.78;5189897;22;20651;-86
2024/03/04 00:47:11;;;;;;;10.00;8.02;;;;;;;8.46;88.66;96819.38;5189603;22;20652;-86
2024/03/04 00:49:15;;;;;;;11.40;8.13;;;;;;;8.44;89.88;96825.66;5138043;23;20220;-86
2024/03/04 00:51:18;;;;;;;11.82;8.60;;;;;;;8.44;89.20;96817.88;5163898;23;20658;-86
2024/03/04 00:53:21;;;;;;;12.37;9.17;;;;;;;8.43;88.71;96824.81;5162475;23;20589;-86
2024/03/04 00:55:25;;;;;;;13.70;9.40;;;;;;;8.40;88.67;96829.44;5137798;23;20575;-85
2024/03/04 00:57:29;;;;;;;13.77;8.70;;;;;;;8.39;89.88;96830.38;5163398;23;20575;-86
2024/03/04 00:59:34;;;;;;;12.40;9.03;;;;;;;8.37;89.01;96830.50;5163480;23;20264;-86
2024/03/04 01:01:38;;;;;;;12.43;8.10;;;;;;;8.37;90.10;96838.31;5190690;22;20591;-86
2024/03/04 01:03:41;;;;;;;12.53;9.33;;;;;;;8.39;89.93;96835.59;5164526;23;20169;-86
2024/03/04 01:05:45;;;;;;;12.63;9.50;;;;;;;8.38;90.33;96832.16;5162950;23;21328;-86
2024/03/04 01:07:50;;;;;;;11.90;8.90;;;;;;;8.42;90.17;96832.75;5162772;23;20576;-85
2024/03/04 01:09:53;;;;;;;12.83;9.50;;;;;;;8.40;88.56;96839.84;5162431;23;20568;-87
2024/03/04 01:11:56;;;;;;;14.70;9.23;;;;;;;8.39;89.92;96844.22;5138144;23;20592;-85
2024/03/04 01:13:59;;;;;;;13.65;9.90;;;;;;;8.40;89.57;96850.22;5163164;23;20172;-86
2024/03/04 01:16:04;;;;;;;10.70;9.03;;;;;;;8.42;90.63;96850.91;5162441;23;20248;-86
2024/03/04 01:18:10;;;;;;;13.20;9.52;;;;;;;8.43;90.53;96856.00;5163730;23;20575;-86
2024/03/04 01:20:14;;;;;;;13.45;9.40;;;;;;;8.47;89.55;96867.81;5190246;22;20203;-86
2024/03/04 01:22:18;;;;;;;16.07;10.67;;;;;;;8.47;90.20;96860.81;5163032;23;20186;-86
2024/03/04 01:24:22;;;;;;;16.13;9.45;;;;;;;8.46;90.02;96861.78;5137886;23;20565;-85
2024/03/04 01:26:27;;;;;;;14.83;10.37;;;;;;;8.48;90.74;96869.47;5162720;23;20353;-85
2024/03/04 01:28:30;;;;;;;13.65;9.73;;;;;;;8.47;90.58;96860.00;5163396;23;20651;-86
2024/03/04 01:30:33;;;;;;;14.00;9.15;;;;;;;8.46;91.01;96858.34;5137623;23;20517;-86
2024/03/04 01:32:38;;;;;;;13.55;10.02;;;;;;;8.42;90.53;96867.34;5163878;23;20177;-86
2024/03/04 01:34:41;;;;;;;11.90;8.68;;;;;;;8.36;90.19;96867.84;5137746;23;20174;-86
2024/03/04 01:36:45;;;;;;;12.82;9.23;;;;;;;8.31;88.78;96862.16;5189684;22;20255;-86
2024/03/04 01:38:47;;;;;;;13.50;8.80;;;;;;;8.19;87.15;96867.50;5138154;23;20181;-86
2024/03/04 01:40:50;;;;;;;14.77;8.30;;;;;;;8.11;87.69;96864.66;5163191;23;20189;-86
2024/03/04 01:42:55;;;;;;;11.80;8.85;;;;;;;8.10;87.95;96866.44;5137755;23;20208;-85
2024/03/04 01:44:58;;;;;;;14.37;9.03;;;;;;;8.10;88.41;96863.84;5161843;23;20185;-86
2024/03/04 01:47:02;;;;;;;12.80;8.73;;;;;;;8.13;90.61;96879.22;5137076;23;20588;-86
2024/03/04 01:49:07;;;;;;;14.00;9.68;;;;;;;8.16;90.89;96878.13;5189462;22;20180;-86
2024/03/04 01:51:11;;;;;;;14.60;9.85;;;;;;;8.19;91.83;96878.69;5137677;23;20174;-86
2024/03/04 01:53:14;;;;;;;14.70;9.30;;;;;;;8.24;90.87;96884.38;5188659;22;20548;-86
2024/03/04 01:55:17;;;;;;;17.20;9.75;;;;;;;8.24;91.02;96889.56;5135312;23;20569;-86
2024/03/04 01:57:20;;;;;;;10.50;8.05;;;;;;;8.23;90.51;96895.72;5162565;23;20204;-86
2024/03/04 01:59:25;;;;;;;12.80;8.98;;;;;;;8.29;90.49;96897.81;5163791;23;20728;-83
2024/03/04 02:01:28;;;;;;;16.23;9.57;;;;;;;8.32;92.19;96905.38;5137639;23;20614;-82
2024/03/04 02:03:32;;;;;;;13.95;10.32;;;;;;;8.38;92.29;96915.28;5137608;23;20654;-83
2024/03/04 02:05:37;;;;;;;14.23;11.13;;;;;;;8.44;91.80;96914.81;5137286;23;20177;-83
2024/03/04 02:07:42;;;;;;;18.30;11.52;;;;;;;8.51;92.68;96919.41;5138064;23;20201;-83
2024/03/04 02:09:45;;;;;;;14.68;9.82;;;;;;;8.54;93.78;96920.94;5162962;23;20180;-83
2024/03/04 02:11:51;;;;;;;12.70;9.00;;;;;;;8.50;92.39;96919.53;5163199;23;20256;-82
2024/03/04 02:13:55;;;;;;;14.20;9.52;;;;;;;8.46;92.00;96920.69;5135937;23;21127;-83
2024/03/04 02:15:58;;;;;;;12.20;8.48;;;;;;;8.38;90.63;96923.09;5188192;22;20202;-83
2024/03/04 02:18:02;;;;;;;11.43;9.02;;;;;;;8.32;90.39;96933.94;5163042;23;20177;-83
2024/03/04 02:20:08;;;;;;;16.25;9.50;;;;;;;8.25;90.17;96935.34;5163239;23;20181;-83
2024/03/04 02:22:14;;;;;;;10.18;7.85;;;;;;;8.26;90.63;96931.81;5162202;23;20180;-82
2024/03/04 02:24:20;;;;;;;11.95;8.38;;;;;;;8.29;89.33;96941.97;5136683;23;20661;-83
2024/03/04 02:26:23;;;;;;;14.25;9.98;;;;;;;8.31;89.29;96934.06;5161315;23;20501;-83
2024/03/04 02:28:28;;;;;;;15.75;10.50;;;;;;;8.33;91.16;96932.16;5163105;23;20524;-83
2024/03/04 02:30:33;;;;;;;16.03;11.00;;;;;;;8.42;92.29;96931.44;5162035;23;20174;-82
2024/03/04 02:32:38;;;;;;;15.38;11.05;;;;;;;8.51;92.85;96936.78;5188553;22;21079;-83
2024/03/04 02:34:41;;;;;;;15.90;10.90;;;;;;;8.60;92.56;96942.06;5162918;23;20189;-83
2024/03/04 02:36:45;;;;;;;13.00;10.27;;;;;;;8.64;93.53;96942.63;5161506;23;20183;-83
2024/03/04 02:38:47;;;;;;;11.47;8.30;;;;;;;8.63;92.71;96941.81;5190037;22;21094;-83
2024/03/04 02:40:53;;;;;;;13.00;8.57;;;;;;;8.57;91.61;96949.28;5137988;23;20624;-83
2024/03/04 02:42:56;;;;;;;13.93;8.50;;;;;;;8.50;90.21;96948.09;5162042;23;20173;-83
2024/03/04 02:45:00;;;;;;;11.90;8.63;;;;;;;8.48;90.50;96958.63;5161748;23;20219;-83
2024/03/04 02:47:03;;;;;;;12.07;8.77;;;;;;;8.48;90.61;96965.59;5136457;23;20586;-82
2024/03/04 02:49:06;;;;;;;13.40;10.02;;;;;;;8.50;91.67;96971.47;5163269;23;20649;-82
2024/03/04 02:51:09;;;;;;;12.40;9.43;;;;;;;8.55;91.95;96975.38;5189394;22;20248;-83
2024/03/04 02:53:12;;;;;;;16.58;10.82;;;;;;;8.62;92.22;96989.53;5137068;23;20166;-82
2024/03/04 02:55:14;;;;;;;18.30;11.63;;;;;;;8.72;92.91;96982.69;5160639;23;20174;-82
2024/03/04 02:57:19;;;;;;;14.65;11.80;;;;;;;8.83;93.99;96994.84;5161791;23;20552;-83
2024/03/04 02:59:22;;;;;;;15.03;11.27;;;;;;;8.91;93.99;96992.44;5136711;23;20665;-83
2024/03/04 03:01:26;;;;;;;15.68;11.68;;;;;;;8.96;94.25;96994.56;5136513;23;20657;-83
2024/03/04 03:03:30;;;;;;;13.67;9.87;;;;;;;9.01;95.34;96997.59;5161453;23;20693;-83
2024/03/04 03:05:34;;;;;;;12.30;8.70;;;;;;;8.99;94.16;96994.31;5161196;23;20663;-83
2024/03/04 03:07:37;;;;;;;13.70;9.60;;;;;;;9.00;93.56;96997.72;5161319;23;20585;-83
2024/03/04 03:09:40;;;;;;;12.63;9.00;;;;;;;9.03;92.84;97000.91;5137468;23;20605;-82
2024/03/04 03:11:43;;;;;;;11.53;9.27;;;;;;;9.03;93.86;97002.69;5161904;23;21163;-82
2024/03/04 03:13:48;;;;;;;14.15;10.30;;;;;;;9.01;93.82;97009.78;5162443;23;20584;-83
2024/03/04 03:15:51;;;;;;;13.80;10.10;;;;;;;9.03;93.72;97000.09;5162065;23;20178;-83
2024/03/04 03:17:53;;;;;;;14.27;10.20;;;;;;;9.07;93.92;97009.31;5136594;23;20565;-82
2024/03/04 03:19:56;;;;;;;12.20;8.90;;;;;;;9.07;93.52;97015.31;5137898;23;20985;-83
2024/03/04 03:21:59;;;;;;;12.13;9.10;;;;;;;8.99;93.19;97022.06;5137585;23;20581;-83
2024/03/04 03:24:03;;;;;;;12.87;9.20;;;;;;;8.97;92.32;97026.56;5190171;22;20946;-82
2024/03/04 03:26:05;;;;;;;14.50;10.23;;;;;;;8.99;92.82;97030.72;5161153;23;21190;-83
2024/03/04 03:28:08;;;;;;;13.80;10.33;;;;;;;9.02;93.75;97030.47;5161880;23;20576;-83
2024/03/04 03:30:14;;;;;;;14.27;10.53;;;;;;;9.09;93.34;97044.63;5137426;23;20640;-83
2024/03/04 03:32:18;;;;;;;17.23;12.60;;;;;;;9.16;94.53;97040.59;5162923;23;20557;-83
2024/03/04 03:34:20;;;;;;;19.60;12.83;;;;;;;9.22;94.13;97050.53;5162213;23;20569;-83
2024/03/04 03:36:24;;;;;;;11.50;9.70;;;;;;;9.24;94.29;97046.00;5188858;22;20622;-82
2024/03/04 03:38:27;;;;;;;14.70;11.00;;;;;;;9.27;94.54;97042.34;5137473;23;20579;-83
2024/03/04 03:40:31;;;;;;;12.90;10.20;;;;;;;9.29;93.45;97048.25;5162192;23;20564;-83
2024/03/04 03:42:34;;;;;;;14.03;9.87;;;;;;;9.31;94.35;97051.56;5162261;23;20564;-83
2024/03/04 03:44:37;;;;;;;12.10;9.33;;;;;;;9.30;93.59;97055.94;5161865;23;20995;-83
2024/03/04 03:46:42;;;;;;;13.97;9.63;;;;;;;9.26;93.04;97046.75;5136207;23;20566;-83
2024/03/04 03:48:45;;;;;;;13.20;9.70;;;;;;;9.25;92.28;97050.28;5161687;23;20607;-82
2024/03/04 03:50:48;;;;;;;13.47;9.90;;;;;;;9.24;92.51;97053.00;5162870;23;20671;-82
2024/03/04 03:52:51;;;;;;;13.40;10.50;;;;;;;9.28;93.24;97057.84;5137478;23;21478;-83
2024/03/04 03:54:56;;;;;;;16.60;11.77;;;;;;;9.33;92.68;97060.06;5162207;23;20545;-83
2024/03/04 03:56:59;;;;;;;14.67;10.97;;;;;;;9.38;92.95;97067.41;5161639;23;20626;-82
2024/03/04 03:59:03;;;;;;;20.20;13.13;;;;;;;9.44;94.22;97073.84;5137708;23;20920;-83
2024/03/04 04:01:06;;;;;;;19.27;13.43;;;;;;;9.50;94.56;97075.97;5162501;23;20553;-82
2024/03/04 04:03:11;;;;;;;18.53;13.63;;;;;;;9.57;94.60;97090.16;5162398;23;20588;-83
2024/03/04 04:05:15;;;;;;;22.97;14.90;;;;;;;9.63;95.16;97089.66;5189395;22;21122;-83
2024/03/04 04:07:18;;;;;;;22.17;15.07;;;;;;;9.67;95.71;97096.28;5161660;23;20597;-82
2024/03/04 04:09:20;;;;;;;19.80;13.80;;;;;;;9.71;95.97;97106.34;5162627;23;20614;-83
2024/03/04 04:11:24;;;;;;;20.60;14.10;;;;;;;9.75;96.18;97104.31;5162511;23;21088;-83
2024/03/04 04:13:28;;;;;;;18.00;13.68;;;;;;;9.76;95.75;97103.34;5162443;23;20553;-83
2024/03/04 04:15:32;;;;;;;15.70;11.90;;;;;;;9.78;95.56;97109.25;5136190;23;20252;-83
2024/03/04 04:17:35;;;;;;;21.27;13.23;;;;;;;9.79;96.02;97113.50;5161804;23;20197;-83
2024/03/04 04:19:40;;;;;;;16.65;12.40;;;;;;;9.81;96.24;97116.81;5161788;23;20705;-83
2024/03/04 04:21:43;;;;;;;15.90;11.90;;;;;;;9.81;95.47;97112.44;5160740;23;20179;-83
2024/03/04 04:23:46;;;;;;;15.67;12.07;;;;;;;9.83;95.26;97120.13;5137275;23;20577;-83
2024/03/04 04:25:50;;;;;;;17.53;11.87;;;;;;;9.84;94.90;97121.78;5137449;23;20573;-83
2024/03/04 04:27:53;;;;;;;15.53;11.20;;;;;;;9.84;94.99;97116.56;5190971;22;20562;-83
2024/03/04 04:29:56;;;;;;;18.20;12.80;;;;;;;9.85;94.89;97127.69;5139312;23;20916;-83
2024/03/04 04:32:00;;;;;;;19.83;13.57;;;;;;;9.87;95.27;97133.59;5190006;22;20646;-83
2024/03/04 04:34:04;;;;;;;19.70;13.40;;;;;;;9.88;94.37;97137.03;5138165;23;20581;-83
2024/03/04 04:36:08;;;;;;;19.93;13.57;;;;;;;9.91;94.60;97134.19;5190585;22;21075;-83
2024/03/04 04:38:11;;;;;;;18.97;13.13;;;;;;;9.94;94.70;97147.81;5163883;23;20674;-83
2024/03/04 04:40:19;;;;;;;20.07;13.53;;;;;;;9.96;94.49;97145.91;5138959;23;20569;-83
2024/03/04 04:42:23;;;;;;;20.97;14.53;;;;;;;9.97;94.71;97141.53;5162843;23;20571;-83
2024/03/04 04:44:26;;;;;;;18.70;13.50;;;;;;;9.98;93.98;97140.56;5191139;22;21000;-82
2024/03/04 04:46:29;;;;;;;17.57;13.27;;;;;;;10.00;94.82;97147.31;5137884;23;21022;-83
2024/03/04 04:48:32;;;;;;;16.47;12.30;;;;;;;9.97;94.80;97155.38;5164180;23;20603;-83
2024/03/04 04:50:35;;;;;;;16.20;12.00;;;;;;;9.94;95.16;97155.63;5164490;23;21138;-83
2024/03/04 04:52:39;;;;;;;22.20;16.83;;;;;;;9.92;94.56;97160.09;5190551;22;20647;-83
2024/03/04 04:54:44;;;;;;;20.50;13.93;;;;;;;9.90;94.53;97161.16;5163318;23;20564;-83
2024/03/04 04:56:48;;;;;;;22.07;14.77;;;;;;;9.89;95.21;97165.56;5138165;23;20999;-83
2024/03/04 04:58:52;;;;;;;19.40;14.23;;;;;;;9.90;94.91;97169.81;5164068;23;20618;-83
2024/03/04 05:00:56;;;;;;;23.27;16.50;;;;;;;9.88;95.42;97174.31;5138068;23;20573;-83
2024/03/04 05:03:00;;;;;;;23.10;16.30;;;;;;;9.92;96.03;97177.50;5163951;23;20586;-83
2024/03/04 05:05:03;;;;;;;22.37;16.13;;;;;;;9.96;95.99;97181.53;5163339;23;21243;-83
2024/03/04 05:07:07;;;;;;;22.47;14.90;;;;;;;10.00;96.06;97185.56;5190021;22;20629;-83
2024/03/04 05:09:10;;;;;;;16.67;11.73;;;;;;;9.99;96.37;97184.72;5137417;23;20557;-83
2024/03/04 05:11:14;;;;;;;19.60;14.07;;;;;;;10.00;96.17;97191.59;5190119;22;20616;-83
2024/03/04 05:13:17;;;;;;;22.20;15.63;;;;;;;9.99;96.14;97195.13;5161048;23;20653;-83
2024/03/04 05:15:19;;;;;;;27.00;16.43;;;;;;;10.03;96.71;97191.34;5161362;23;20556;-83
2024/03/04 05:17:22;;;;;;;30.17;18.67;;;;;;;10.06;96.87;97196.31;5163672;23;20566;-83
2024/03/04 05:19:33;;;;;;;30.23;20.20;;;;;;;10.11;97.55;97201.16;5189649;22;21132;-83
2024/03/04 05:21:37;;;;;;;34.30;20.80;;;;;;;10.15;97.25;97195.56;5163741;23;20659;-82
2024/03/04 05:23:41;;;;;;;33.13;21.00;;;;;;;10.21;97.75;97200.28;5190603;22;20624;-83
2024/03/04 05:25:47;;;;;;;32.47;21.40;;;;;;;10.24;98.43;97200.03;5137455;23;20644;-82
2024/03/04 05:27:50;;;;;;;29.93;19.50;;;;;;;10.29;98.12;97204.88;5138495;23;21284;-83
2024/03/04 05:29:53;;;;;;;33.10;20.40;;;;;;;10.31;97.99;97214.22;5164172;23;20592;-82
2024/03/04 05:31:57;;;;;;;33.13;21.67;;;;;;;10.34;98.23;97217.41;5163420;23;20566;-82
2024/03/04 05:34:01;;;;;;;34.77;21.40;;;;;;;10.35;98.48;97213.84;5163128;23;20572;-82
2024/03/04 05:36:08;;;;;;;36.10;22.40;;;;;;;10.33;98.16;97214.94;5189730;22;20564;-82
2024/03/04 05:38:11;;;;;;;35.60;21.57;;;;;;;10.35;98.33;97220.84;5190737;22;20562;-83
2024/03/04 05:40:14;;;;;;;39.90;25.63;;;;;;;10.37;98.57;97211.09;5138159;23;20971;-83
2024/03/04 05:42:19;;;;;;;38.53;22.87;;;;;;;10.38;97.88;97216.19;5188264;22;20674;-83
2024/03/04 05:44:22;;;;;;;38.37;22.50;;;;;;;10.39;98.37;97223.06;5162385;23;20585;-83
2024/03/04 05:46:25;;;;;;;39.87;24.40;;;;;;;10.38;98.04;97215.38;5137692;23;20677;-83
2024/03/04 05:48:29;;;;;;;37.23;23.40;;;;;;;10.41;98.17;97223.75;5138844;23;21096;-84
2024/03/04 05:50:32;;;;;;;42.30;25.20;;;;;;;10.43;97.83;97227.09;5138985;23;20617;-83
2024/03/04 05:52:39;;;;;;;37.50;24.27;;;;;;;10.44;98.36;97240.94;5164420;23;20615;-84
2024/03/04 05:54:42;;;;;;;42.00;25.90;;;;;;;10.46;98.65;97241.63;5164510;23;20564;-83
2024/03/04 05:56:46;;;;;;;43.33;25.80;;;;;;;10.49;98.22;97241.38;5138108;23;20581;-84
2024/03/04 05:58:50;;;;;;;43.20;26.57;;;;;;;10.52;97.78;97251.56;5164245;23;20566;-82
2024/03/04 06:00:56;;;;;;;43.60;26.07;;;;;;;10.53;97.28;97250.63;5160895;23;21076;-84
2024/03/04 06:03:00;;;;;;;42.60;26.00;;;;;;;10.56;97.69;97252.97;5137039;23;20660;-84
2024/03/04 06:05:04;;;;;;;45.40;27.33;;;;;;;10.56;96.70;97258.19;5164200;23;20594;-84
2024/03/04 06:07:08;;;;;;;44.77;26.03;;;;;;;10.56;97.43;97248.59;5191749;22;20629;-84
2024/03/04 06:09:15;;;;;;;43.37;25.80;;;;;;;10.56;97.28;97258.19;5164366;23;20611;-85
2024/03/04 06:11:18;;;;;;;41.60;26.03;;;;;;;10.57;97.04;97254.63;5164516;23;20582;-85
2024/03/04 06:13:22;;;;;;;44.43;27.03;;;;;;;10.59;97.41;97269.19;5161895;23;20600;-83
2024/03/04 06:15:29;;;;;;;45.40;28.13;;;;;;;10.60;96.33;97268.25;5161937;23;20614;-82
2024/03/04 06:17:32;;;;;;;44.77;24.93;;;;;;;10.60;97.16;97263.03;5163857;23;20565;-84
2024/03/04 06:19:35;;;;;;;41.77;26.43;;;;;;;10.59;97.38;97271.78;5163797;23;20924;-85
2024/03/04 06:21:38;;;;;;;42.57;26.90;;;;;;;10.61;97.47;97271.66;5138160;23;20569;-85
2024/03/04 06:23:42;;;;;;;43.60;26.67;;;;;;;10.59;96.40;97273.59;5162964;23;20599;-85
2024/03/04 06:25:45;;;;;;;41.80;26.80;;;;;;;10.62;96.11;97281.97;5188708;22;20960;-84
2024/03/04 06:27:49;;;;;;;42.47;27.47;;;;;;;10.64;97.07;97272.25;5137941;23;21158;-85
2024/03/04 06:29:53;;;;;;;45.53;28.00;;;;;;;10.65;96.42;97276.50;5137116;23;20624;-83
2024/03/04 06:31:59;;;;;;;45.10;26.90;;;;;;;10.66;96.18;97277.34;5187477;22;21102;-83
2024/03/04 06:34:02;;;;;;;40.50;26.57;;;;;;;10.66;97.29;97278.19;5137223;23;20580;-83
2024/03/04 06:36:21;;;;;;;39.40;25.40;;;;;;;10.67;96.78;97276.38;5160670;23;21178;-83
2024/03/04 06:38:25;;;;;;;43.57;27.07;;;;;;;10.70;96.25;97281.34;5139000;23;20696;-86
2024/03/04 06:40:32;;;;;;;42.83;26.80;;;;;;;10.70;96.08;97287.38;5138660;23;21205;-83
2024/03/04 06:42:37;;;;;;;41.87;26.50;;;;;;;10.72;95.88;97288.13;5164005;23;20564;-84
2024/03/04 06:44:41;;;;;;;41.30;25.87;;;;;;;10.73;96.22;97296.75;5137767;23;20572;-83
2024/03/04 06:46:44;;;;;;;44.33;26.47;;;;;;;10.74;95.57;97303.63;5137915;23;21235;-83
2024/03/04 06:48:49;;;;;;;41.53;26.00;;;;;;;10.73;95.79;97292.34;5163011;23;21145;-83
2024/03/04 06:50:52;;;;;;;43.70;26.90;;;;;;;10.75;96.34;97300.06;5163336;23;20596;-83
2024/03/04 06:52:56;;;;;;;42.67;26.60;;;;;;;10.76;96.15;97305.16;5137808;23;20554;-83
2024/03/04 06:55:00;;;;;;;41.77;26.40;;;;;;;10.73;96.40;97313.22;5138117;23;20581;-83
2024/03/04 06:57:03;;;;;;;42.50;26.57;;;;;;;10.73;96.88;97315.00;5136993;23;21081;-82
2024/03/04 06:59:05;;;;;;;43.70;26.70;;;;;;;10.73;96.44;97312.41;5163806;23;21190;-83
2024/03/04 07:01:09;;;;;;;45.20;28.17;;;;;;;10.74;96.97;97319.28;5163138;23;20623;-83
2024/03/04 07:03:12;;;;;;;45.70;27.93;;;;;;;10.77;96.15;97313.81;5163789;23;20548;-83
2024/03/04 07:05:17;;;;;;;45.13;27.87;;;;;;;10.78;96.93;97321.53;5137570;23;20665;-83
2024/03/04 07:07:20;;;;;;;44.90;28.07;;;;;;;10.81;96.10;97321.28;5190009;22;21305;-83
2024/03/04 07:09:23;;;;;;;43.50;26.87;;;;;;;10.83;96.11;97328.00;5162533;23;20659;-83
2024/03/04 07:11:28;;;;;;;46.40;26.60;;;;;;;10.87;95.40;97331.19;5137627;23;20938;-83
2024/03/04 07:13:31;;;;;;;45.83;27.90;;;;;;;10.86;95.38;97330.34;5138106;23;21190;-83
2024/03/04 07:15:34;;;;;;;44.27;27.10;;;;;;;10.82;96.25;97334.19;5161990;23;20580;-83
2024/03/04 07:17:38;;;;;;;42.00;26.80;;;;;;;10.83;95.82;97335.81;5162661;23;20576;-83
2024/03/04 07:19:42;;;;;;;44.90;28.07;;;;;;;10.83;95.71;97335.81;5189771;22;20563;-82
2024/03/04 07:21:46;;;;;;;51.27;28.17;;;;;;;10.84;96.11;97334.88;5162551;23;20580;-81
2024/03/04 07:23:50;;;;;;;46.10;27.47;;;;;;;10.87;95.50;97337.25;5137821;23;20572;-82
2024/03/04 07:25:53;;;;;;;43.13;27.23;;;;;;;10.88;95.10;97343.28;5188849;22;20602;-81
2024/03/04 07:27:56;;;;;;;46.67;29.10;;;;;;;10.90;95.59;97347.41;5137053;23;20570;-82
2024/03/04 07:30:00;;;;;;;51.50;27.37;;;;;;;10.91;95.50;97353.47;5163197;23;20620;-82
2024/03/04 07:32:06;;;;;;;46.20;30.33;;;;;;;10.94;95.33;97354.03;5137880;23;21096;-82
2024/03/04 07:34:09;;;;;;;49.50;29.23;;;;;;;10.95;95.07;97357.50;5137425;23;20577;-82
2024/03/04 07:36:13;;;;;;;50.03;29.10;;;;;;;10.96;95.38;97351.28;5136567;23;20608;-82
2024/03/04 07:38:21;;;;;;;46.77;29.00;;;;;;;10.98;96.15;97354.63;5162832;23;20671;-82
2024/03/04 07:40:24;;;;;;;47.97;28.30;;;;;;;10.96;95.57;97353.91;5161596;23;20564;-82
2024/03/04 07:42:27;;;;;;;48.13;29.00;;;;;;;10.98;95.71;97371.09;5157271;23;20560;-82
2024/03/04 07:44:31;;;;;;;50.77;27.50;;;;;;;11.00;95.66;97365.75;5136364;23;20577;-83
2024/03/04 07:46:34;;;;;;;48.50;28.70;;;;;;;11.00;96.03;97366.56;5187630;22;20694;-83
2024/03/04 07:48:38;;;;;;;51.27;29.40;;;;;;;10.98;96.08;97360.66;5160780;23;20583;-86
2024/03/04 07:50:43;;;;;;;49.67;28.97;;;;;;;10.97;95.23;97364.22;5187876;22;20571;-85
2024/03/04 07:52:48;;;;;;;54.07;30.47;;;;;;;10.96;94.99;97375.63;5135890;23;20660;-86
2024/03/04 07:54:53;;;;;;;51.90;28.90;;;;;;;10.93;95.35;97375.03;5138115;23;20590;-86
2024/03/04 07:56:56;;;;;;;52.30;28.73;;;;;;;10.93;95.29;97383.69;5137552;23;20668;-86
2024/03/04 07:59:03;;;;;;;50.07;28.30;;;;;;;10.95;95.27;97381.78;5160817;23;20639;-87
2024/03/04 08:01:06;;;;;;;54.00;29.20;;;;;;;10.94;95.76;97382.72;5189292;22;20613;-86
2024/03/04 08:03:10;;;;;;;49.80;30.10;;;;;;;10.93;95.55;97385.47;5137958;23;20572;-85
2024/03/04 08:05:13;;;;;;;53.57;30.30;;;;;;;10.91;95.55;97382.97;5137541;23;20576;-86
2024/03/04 08:07:16;;;;;;;49.97;28.23;;;;;;;10.92;96.18;97383.81;5137236;23;20989;-87
2024/03/04 08:09:19;;;;;;;56.00;30.37;;;;;;;10.93;95.70;97391.53;5162722;23;20663;-86
2024/03/04 08:11:24;;;;;;;61.63;32.00;;;;;;;10.96;96.29;97395.66;5138045;23;21180;-85
2024/03/04 08:13:28;;;;;;;58.60;30.37;;;;;;;10.98;95.24;97396.38;5161137;23;20576;-83
2024/03/04 08:15:31;;;;;;;51.33;29.60;;;;;;;10.96;95.61;97390.44;5160507;23;21248;-83
2024/03/04 08:17:35;;;;;;;55.97;30.23;;;;;;;10.98;95.19;97393.75;5135432;23;20604;-84
2024/03/04 08:19:38;;;;;;;49.80;29.07;;;;;;;11.00;95.89;97399.66;5161079;23;20580;-84
2024/03/04 08:21:44;;;;;;;53.83;28.00;;;;;;;10.98;96.46;97401.59;5161859;23;21139;-84
2024/03/04 08:23:47;;;;;;;57.90;31.13;;;;;;;11.00;95.58;97404.88;5137519;23;20573;-84
2024/03/04 08:25:50;;;;;;;56.80;30.80;;;;;;;11.05;96.26;97403.56;5188844;22;20577;-84
2024/03/04 08:27:55;;;;;;;60.40;30.30;;;;;;;11.06;96.21;97410.44;5137008;23;20609;-84
2024/03/04 08:29:58;;;;;;;61.93;30.70;;;;;;;11.07;96.55;97414.72;5162862;23;20568;-84
2024/03/04 08:32:04;;;;;;;63.40;30.67;;;;;;;11.04;96.40;97414.97;5162590;23;21274;-84
2024/03/04 08:34:07;;;;;;;55.70;30.43;;;;;;;11.04;96.11;97416.75;5163576;23;20635;-84
2024/03/04 08:36:09;;;;;;;64.13;31.20;;;;;;;11.03;96.29;97418.50;5161254;23;20580;-84
2024/03/04 08:38:13;;;;;;;60.97;32.63;;;;;;;11.05;97.15;97419.22;5137720;23;20577;-84
2024/03/04 08:40:16;;;;;;;59.27;31.13;;;;;;;11.05;95.78;97426.22;5137018;23;20597;-83
2024/03/04 08:42:19;;;;;;;61.73;32.83;;;;;;;11.07;96.49;97425.16;5137199;23;20672;-83
2024/03/04 08:44:24;;;;;;;62.43;31.83;;;;;;;11.09;95.52;97431.06;5161738;23;20611;-84
2024/03/04 08:46:27;;;;;;;59.70;31.30;;;;;;;11.10;95.72;97429.31;5161351;23;20587;-84
2024/03/04 08:48:30;;;;;;;63.70;30.83;;;;;;;11.11;96.28;97433.53;5189801;22;20694;-84
2024/03/04 08:50:34;;;;;;;57.87;30.50;;;;;;;11.09;96.02;97430.25;5161798;23;20584;-83
2024/03/04 08:52:37;;;;;;;67.17;32.73;;;;;;;11.09;97.12;97441.50;5189834;22;20559;-83
2024/03/04 08:54:39;;;;;;;63.97;33.17;;;;;;;11.07;96.69;97438.19;5189050;22;20563;-84
2024/03/04 08:56:43;;;;;;;60.00;32.60;;;;;;;11.09;95.56;97433.66;5161428;23;20626;-84
2024/03/04 08:58:47;;;;;;;57.10;30.37;;;;;;;11.11;97.23;97444.84;5161964;23;20929;-82
2024/03/04 09:00:51;;;;;;;63.60;32.27;;;;;;;11.13;96.75;97449.94;5188765;22;20616;-82
2024/03/04 09:02:55;;;;;;;61.07;31.37;;;;;;;11.13;95.78;97453.34;5189032;22;20617;-82
2024/03/04 09:04:58;;;;;;;62.10;31.10;;;;;;;11.11;96.18;97457.03;5161458;23;20720;-82
2024/03/04 09:07:02;;;;;;;61.57;31.00;;;;;;;11.06;97.19;97465.22;5189193;22;20888;-82
2024/03/04 09:09:05;;;;;;;59.57;31.37;;;;;;;11.04;96.22;97458.50;5162034;23;20977;-82
2024/03/04 09:11:09;;;;;;;65.90;32.30;;;;;;;11.04;96.34;97461.09;5161822;23;20557;-82
2024/03/04 09:13:13;;;;;;;61.93;32.60;;;;;;;11.01;97.53;97470.00;5137823;23;20557;-82
2024/03/04 09:15:17;;;;;;;63.20;32.93;;;;;;;11.01;97.31;97467.38;5162513;23;20549;-82
2024/03/04 09:17:21;;;;;;;68.13;33.73;;;;;;;11.03;97.27;97482.91;5162562;23;20565;-81
2024/03/04 09:19:24;;;;;;;63.60;32.80;;;;;;;11.05;97.39;97475.78;5190610;22;21128;-84
2024/03/04 09:21:27;;;;;;;66.70;33.97;;;;;;;11.06;96.73;97472.25;5164303;23;20583;-82
2024/03/04 09:23:30;;;;;;;80.73;34.20;;;;;;;11.07;97.35;97479.13;5191435;22;20560;-84
2024/03/04 09:25:34;;;;;;;72.33;32.63;;;;;;;11.06;96.47;97474.84;5137803;23;20692;-84
2024/03/04 09:27:38;;;;;;;74.67;33.93;;;;;;;11.06;96.84;97480.88;5138896;23;20699;-84
2024/03/04 09:29:41;;;;;;;74.23;36.07;;;;;;;11.07;97.72;97479.94;5164433;23;20564;-85
2024/03/04 09:31:45;;;;;;;80.10;35.97;;;;;;;11.08;97.75;97484.22;5186815;22;20617;-84
2024/03/04 09:33:49;;;;;;;68.87;34.47;;;;;;;11.09;96.83;97483.25;5161878;23;20580;-84
2024/03/04 09:35:53;;;;;;;76.30;34.67;;;;;;;11.09;96.98;97488.47;5162503;23;20576;-84